Time;durP1;ratioP1;P1;durP2;ratioP2;P2;SDS_P1;SDS_P2;PMS_P1;PMS_P2;Temp;Humidity;BMP_temperature;BMP_pressure;BME280_temperature;BME280_humidity;BME280_pressure;Samples;Min_cycle;Max_cycle;Signal;HPM_P1;HPM_P2
2023/07/21 00:01:28;;;;;;;20.95;6.70;;;31.10;64.00;;;;;;6211451;23;20102;-74
2023/07/21 00:03:53;;;;;;;18.77;7.20;;;31.10;63.90;;;;;;6154458;23;20026;-74
2023/07/21 00:06:19;;;;;;;14.80;6.28;;;31.10;63.50;;;;;;6154957;23;20005;-73
2023/07/21 00:08:45;;;;;;;13.20;6.65;;;31.10;63.50;;;;;;6154988;23;19998;-72
2023/07/21 00:11:11;;;;;;;16.92;6.78;;;31.20;63.40;;;;;;6155103;23;19998;-73
2023/07/21 00:13:37;;;;;;;15.98;6.90;;;31.20;63.40;;;;;;6155138;23;20312;-72
2023/07/21 00:16:04;;;;;;;16.42;6.72;;;31.20;63.40;;;;;;6155116;23;20040;-73
2023/07/21 00:18:30;;;;;;;17.08;6.35;;;31.20;63.30;;;;;;6155042;23;20008;-73
2023/07/21 00:20:57;;;;;;;19.20;7.25;;;31.20;63.20;;;;;;6154692;23;20037;-74
2023/07/21 00:23:24;;;;;;;25.52;7.15;;;31.20;63.40;;;;;;6154790;23;20084;-72
2023/07/21 00:25:51;;;;;;;19.70;7.53;;;31.20;63.20;;;;;;6154984;23;20025;-74
2023/07/21 00:28:17;;;;;;;16.88;7.07;;;31.20;62.90;;;;;;6154886;23;20336;-72
2023/07/21 00:30:46;;;;;;;19.58;6.63;;;31.20;63.00;;;;;;6156960;23;20137;-72
2023/07/21 00:33:13;;;;;;;15.70;6.28;;;31.20;62.70;;;;;;6156079;23;20068;-73
2023/07/21 00:35:40;;;;;;;17.83;6.30;;;31.20;62.80;;;;;;6155182;23;20037;-72
2023/07/21 00:38:06;;;;;;;17.17;6.85;;;31.20;62.70;;;;;;6128637;23;20020;-72
2023/07/21 00:40:35;;;;;;;18.60;7.10;;;31.20;62.60;;;;;;6154811;23;20069;-73
2023/07/21 00:43:01;;;;;;;15.23;6.50;;;31.20;62.40;;;;;;6154694;23;20096;-72
2023/07/21 00:45:29;;;;;;;19.02;7.22;;;31.20;62.40;;;;;;6154745;23;20037;-73
2023/07/21 00:47:56;;;;;;;19.15;6.90;;;31.20;62.10;;;;;;6154709;23;20001;-73
2023/07/21 00:50:23;;;;;;;15.80;6.93;;;31.20;62.30;;;;;;6154452;23;20336;-71
2023/07/21 00:52:50;;;;;;;17.25;7.07;;;31.20;62.40;;;;;;6154643;23;20002;-72
2023/07/21 00:55:15;;;;;;;17.85;6.57;;;31.20;62.40;;;;;;6154711;23;20276;-71
2023/07/21 00:57:42;;;;;;;17.17;7.40;;;31.20;62.70;;;;;;6154659;23;20001;-72
2023/07/21 01:00:12;;;;;;;22.13;8.07;;;31.10;62.30;;;;;;6154543;23;20388;-72
2023/07/21 01:02:38;;;;;;;15.90;7.07;;;31.10;62.60;;;;;;6154717;23;20021;-72
2023/07/21 01:05:04;;;;;;;16.50;6.65;;;31.10;62.20;;;;;;6154809;23;20009;-72
2023/07/21 01:07:35;;;;;;;15.80;6.43;;;31.10;62.50;;;;;;6154794;23;20001;-73
2023/07/21 01:10:02;;;;;;;18.13;6.78;;;31.10;62.40;;;;;;6154560;23;20440;-72
2023/07/21 01:15:52;;;;;;;20.10;7.05;;;31.10;62.90;;;;;;6154890;23;20075;-73
2023/07/21 01:18:20;;;;;;;19.90;7.07;;;31.00;62.70;;;;;;6154660;23;20002;-72
2023/07/21 01:20:47;;;;;;;17.00;6.88;;;31.00;62.60;;;;;;6155227;23;20503;-72
2023/07/21 01:23:38;;;;;;;18.80;6.95;;;31.00;62.50;;;;;;6155597;23;20005;-73
2023/07/21 01:26:06;;;;;;;13.65;5.85;;;31.00;63.10;;;;;;6154499;23;20001;-72
2023/07/21 01:28:32;;;;;;;21.20;7.32;;;31.00;62.90;;;;;;6154513;23;20001;-71
2023/07/21 01:31:00;;;;;;;18.33;6.38;;;31.00;63.10;;;;;;6154257;23;20462;-72
2023/07/21 01:33:28;;;;;;;16.42;7.20;;;31.00;63.10;;;;;;6154195;23;20005;-72
2023/07/21 01:35:56;;;;;;;15.57;6.72;;;30.90;63.20;;;;;;6154103;23;20033;-71
2023/07/21 01:38:22;;;;;;;27.83;8.15;;;30.90;63.40;;;;;;6154357;23;20072;-73
2023/07/21 01:40:49;;;;;;;18.67;7.07;;;30.90;63.40;;;;;;6154209;23;20499;-73
2023/07/21 01:43:15;;;;;;;19.42;7.35;;;30.90;63.30;;;;;;6153965;23;20002;-73
2023/07/21 01:45:42;;;;;;;16.45;6.20;;;30.90;63.20;;;;;;6153728;23;20002;-72
2023/07/21 01:48:09;;;;;;;16.90;6.65;;;30.90;63.30;;;;;;6154096;23;20440;-72
2023/07/21 01:50:39;;;;;;;17.63;6.47;;;30.90;63.20;;;;;;6154549;23;20015;-73
2023/07/21 01:53:12;;;;;;;13.30;6.35;;;30.90;63.20;;;;;;6154361;23;20006;-71
2023/07/21 01:55:46;;;;;;;19.20;6.95;;;30.90;63.00;;;;;;6154102;23;20427;-71
2023/07/21 01:58:14;;;;;;;20.30;7.15;;;30.80;63.10;;;;;;6154367;23;20430;-72
2023/07/21 02:00:42;;;;;;;16.77;6.68;;;30.80;63.20;;;;;;6154359;23;19998;-72
2023/07/21 02:03:10;;;;;;;14.43;6.65;;;30.80;63.20;;;;;;6153958;23;20021;-72
2023/07/21 02:05:36;;;;;;;17.52;6.70;;;30.80;63.20;;;;;;6154086;23;20337;-73
2023/07/21 02:08:01;;;;;;;16.50;7.03;;;30.70;63.50;;;;;;6154135;23;20009;-72
2023/07/21 02:10:27;;;;;;;19.48;6.68;;;30.70;63.10;;;;;;6154013;23;20002;-72
2023/07/21 02:12:53;;;;;;;17.17;7.22;;;30.60;63.20;;;;;;6154398;23;20014;-73
2023/07/21 02:15:19;;;;;;;26.48;7.25;;;30.60;63.30;;;;;;6157968;23;20039;-74
2023/07/21 02:17:45;;;;;;;17.25;6.65;;;30.60;63.30;;;;;;6155814;23;20001;-73
2023/07/21 02:20:10;;;;;;;14.57;6.13;;;30.50;63.30;;;;;;6156221;23;20026;-72
2023/07/21 02:22:39;;;;;;;15.93;6.15;;;30.50;63.50;;;;;;6155995;23;20098;-72
2023/07/21 02:25:06;;;;;;;18.67;6.53;;;30.60;63.50;;;;;;6155903;23;20033;-72
2023/07/21 02:27:32;;;;;;;20.25;7.13;;;30.70;63.80;;;;;;6155023;23;20034;-72
2023/07/21 02:29:59;;;;;;;13.90;6.32;;;30.70;63.50;;;;;;6156001;23;20551;-72
2023/07/21 02:32:25;;;;;;;15.90;6.13;;;30.70;63.50;;;;;;6149251;23;20046;-73
2023/07/21 02:34:51;;;;;;;14.98;7.00;;;30.70;63.60;;;;;;6155130;23;20336;-72
2023/07/21 02:37:16;;;;;;;20.90;7.00;;;30.70;63.90;;;;;;6155777;23;20073;-72
2023/07/21 02:39:42;;;;;;;17.05;6.90;;;30.70;63.70;;;;;;6155747;23;20428;-73
2023/07/21 02:42:08;;;;;;;19.65;6.80;;;30.70;63.70;;;;;;6155516;23;20009;-73
2023/07/21 02:44:34;;;;;;;18.52;6.93;;;30.60;63.80;;;;;;6155524;23;20005;-72
2023/07/21 02:47:00;;;;;;;18.15;7.38;;;30.60;63.60;;;;;;6155862;23;20076;-73
2023/07/21 02:49:26;;;;;;;23.00;6.90;;;30.60;63.50;;;;;;6129282;23;20050;-71
2023/07/21 02:51:51;;;;;;;20.52;6.80;;;30.60;63.80;;;;;;6155612;23;20009;-72
2023/07/21 02:54:17;;;;;;;22.67;7.72;;;30.50;63.60;;;;;;6155584;23;20005;-72
2023/07/21 02:56:44;;;;;;;19.55;6.93;;;30.60;63.70;;;;;;6155244;23;20045;-73
2023/07/21 02:59:10;;;;;;;17.05;7.00;;;30.60;63.80;;;;;;6155394;23;20078;-72
2023/07/21 03:01:36;;;;;;;18.10;8.05;;;30.50;63.70;;;;;;6155319;23;20018;-72
2023/07/21 03:04:03;;;;;;;23.65;7.10;;;30.50;64.10;;;;;;6128990;23;20009;-72
2023/07/21 03:06:30;;;;;;;13.57;6.60;;;30.50;64.00;;;;;;6168396;23;20021;-72
2023/07/21 03:08:56;;;;;;;18.23;7.38;;;30.50;63.70;;;;;;6146995;23;20005;-72
2023/07/21 03:11:22;;;;;;;16.50;7.07;;;30.50;63.40;;;;;;6155482;23;20009;-73
2023/07/21 03:13:48;;;;;;;18.52;7.63;;;30.50;63.20;;;;;;6155452;23;20005;-73
2023/07/21 03:16:14;;;;;;;15.07;6.53;;;30.60;63.40;;;;;;6155372;23;20450;-73
2023/07/21 03:18:39;;;;;;;15.10;7.05;;;30.60;63.40;;;;;;6155147;23;20013;-73
2023/07/21 03:21:05;;;;;;;16.00;6.30;;;30.50;63.40;;;;;;6155020;23;20451;-72
2023/07/21 03:23:32;;;;;;;22.20;7.40;;;30.50;63.30;;;;;;6155284;23;20007;-71
2023/07/21 03:25:57;;;;;;;21.90;8.27;;;30.50;63.60;;;;;;6154538;23;20069;-72
2023/07/21 03:28:23;;;;;;;29.40;7.95;;;30.30;64.00;;;;;;6155436;23;20113;-72
2023/07/21 03:30:59;;;;;;;25.92;9.55;;;30.10;65.20;;;;;;6155004;23;19998;-72
2023/07/21 03:33:25;;;;;;;20.80;8.38;;;30.00;66.10;;;;;;6155182;23;20436;-72
2023/07/21 03:36:02;;;;;;;23.83;8.52;;;30.00;66.40;;;;;;6155270;23;19997;-72
2023/07/21 03:38:31;;;;;;;23.60;7.53;;;30.00;66.70;;;;;;6154866;23;20080;-73
2023/07/21 03:41:03;;;;;;;20.80;8.32;;;30.10;66.70;;;;;;6154708;23;20084;-74
2023/07/21 03:43:29;;;;;;;19.83;7.17;;;30.10;67.10;;;;;;6154918;23;20060;-73
2023/07/21 03:45:59;;;;;;;20.02;7.57;;;30.10;66.90;;;;;;6155055;23;20225;-73
2023/07/21 03:48:25;;;;;;;24.55;7.55;;;30.10;67.10;;;;;;6154710;23;20454;-72
2023/07/21 03:50:55;;;;;;;24.33;8.23;;;30.10;67.20;;;;;;6154459;23;20376;-73
2023/07/21 03:53:21;;;;;;;17.80;7.28;;;30.20;67.20;;;;;;6154743;23;20300;-73
2023/07/21 03:55:47;;;;;;;17.30;7.43;;;30.10;67.20;;;;;;6155344;23;20011;-72
2023/07/21 03:58:13;;;;;;;17.60;7.57;;;30.10;67.50;;;;;;6160014;23;20057;-74
2023/07/21 04:00:42;;;;;;;19.35;7.35;;;30.00;67.30;;;;;;6157920;23;20002;-73
2023/07/21 04:03:08;;;;;;;20.00;7.88;;;30.00;66.90;;;;;;6154638;23;20022;-72
2023/07/21 04:05:34;;;;;;;19.85;8.05;;;30.00;66.80;;;;;;6155078;23;20005;-74
2023/07/21 04:07:59;;;;;;;17.00;7.60;;;30.00;67.20;;;;;;6155167;23;20479;-73
2023/07/21 04:10:25;;;;;;;18.60;7.78;;;30.00;67.30;;;;;;6154999;23;20008;-72
2023/07/21 04:12:51;;;;;;;19.67;8.02;;;29.90;67.30;;;;;;6154829;23;20005;-72
2023/07/21 04:15:16;;;;;;;14.35;7.50;;;29.90;67.30;;;;;;6154729;23;19998;-72
2023/07/21 04:17:43;;;;;;;18.50;7.03;;;29.90;67.00;;;;;;6155043;23;20012;-72
2023/07/21 04:20:10;;;;;;;22.38;7.82;;;29.90;66.90;;;;;;6154624;23;20080;-74
2023/07/21 04:22:36;;;;;;;18.50;7.72;;;29.80;67.50;;;;;;6154649;23;20096;-73
2023/07/21 04:25:02;;;;;;;18.88;7.40;;;29.80;66.90;;;;;;6155213;23;20032;-73
2023/07/21 04:27:28;;;;;;;17.27;7.75;;;29.80;66.90;;;;;;6154636;23;20439;-73
2023/07/21 04:29:55;;;;;;;21.30;7.82;;;29.90;66.90;;;;;;6154637;23;20001;-72
2023/07/21 04:32:21;;;;;;;22.90;8.25;;;29.80;66.50;;;;;;6154440;23;20002;-72
2023/07/21 04:34:46;;;;;;;20.50;7.20;;;29.80;66.80;;;;;;6154937;23;20009;-72
2023/07/21 04:37:13;;;;;;;17.00;7.22;;;29.80;66.80;;;;;;6154228;23;20028;-73
2023/07/21 04:39:42;;;;;;;21.17;7.65;;;29.80;66.80;;;;;;6154542;23;20005;-73
2023/07/21 04:42:09;;;;;;;21.90;7.43;;;29.80;67.10;;;;;;6154871;23;20080;-72
2023/07/21 04:44:35;;;;;;;20.10;7.88;;;29.90;67.00;;;;;;6154696;23;20068;-73
2023/07/21 04:47:04;;;;;;;16.95;7.88;;;29.80;67.30;;;;;;6154513;23;20021;-71
2023/07/21 04:49:29;;;;;;;24.55;8.43;;;29.80;67.00;;;;;;6158693;23;19997;-72
2023/07/21 04:51:58;;;;;;;20.27;7.82;;;29.90;66.90;;;;;;6161802;23;20013;-72
2023/07/21 04:54:24;;;;;;;16.92;7.40;;;29.80;66.70;;;;;;6128012;23;20464;-73
2023/07/21 04:56:50;;;;;;;21.17;7.13;;;29.90;66.70;;;;;;6154617;23;20031;-73
2023/07/21 04:59:16;;;;;;;18.15;7.53;;;29.90;66.30;;;;;;6154207;23;20012;-73
2023/07/21 05:01:42;;;;;;;19.05;7.80;;;29.90;66.40;;;;;;6154333;23;20432;-73
2023/07/21 05:04:07;;;;;;;21.17;7.10;;;30.00;66.30;;;;;;6154719;23;19997;-72
2023/07/21 05:06:33;;;;;;;21.75;7.90;;;30.00;66.20;;;;;;6154546;23;20055;-74
2023/07/21 05:08:59;;;;;;;19.85;7.57;;;30.00;66.10;;;;;;6154435;23;20008;-74
2023/07/21 05:11:25;;;;;;;20.63;7.68;;;30.00;65.40;;;;;;6154768;23;20379;-72
2023/07/21 05:13:52;;;;;;;18.25;7.63;;;30.10;65.30;;;;;;6154571;23;20016;-73
2023/07/21 05:16:18;;;;;;;25.10;9.05;;;30.10;65.20;;;;;;6155064;23;20011;-73
2023/07/21 05:18:43;;;;;;;24.35;8.07;;;30.10;65.40;;;;;;6154090;23;20084;-72
2023/07/21 05:21:09;;;;;;;25.70;8.45;;;30.20;65.40;;;;;;6154309;23;20189;-72
2023/07/21 05:23:35;;;;;;;18.70;7.55;;;30.30;65.10;;;;;;6154870;23;20002;-73
2023/07/21 05:26:02;;;;;;;27.25;8.30;;;30.50;64.50;;;;;;6128071;23;20005;-72
2023/07/21 05:28:28;;;;;;;23.75;8.40;;;30.70;63.90;;;;;;6154342;23;20073;-72
2023/07/21 05:30:55;;;;;;;20.45;8.20;;;31.00;63.20;;;;;;6153805;23;20005;-74
2023/07/21 05:33:21;;;;;;;18.73;7.45;;;31.30;62.60;;;;;;6154049;23;20292;-73
2023/07/21 05:35:47;;;;;;;21.85;7.93;;;31.50;61.80;;;;;;6154071;23;20021;-73
2023/07/21 05:38:13;;;;;;;18.23;7.63;;;31.80;61.30;;;;;;6154278;23;20379;-70
2023/07/21 05:40:41;;;;;;;20.40;7.93;;;32.00;60.40;;;;;;6128401;23;20445;-71
2023/07/21 05:43:06;;;;;;;23.85;8.40;;;32.30;59.80;;;;;;6157230;23;20017;-71
2023/07/21 05:45:36;;;;;;;21.15;8.05;;;32.50;59.10;;;;;;6153828;23;20009;-71
2023/07/21 05:48:01;;;;;;;18.08;7.47;;;32.70;58.60;;;;;;6154480;23;20006;-69
2023/07/21 05:50:27;;;;;;;18.88;7.72;;;32.80;58.10;;;;;;6155981;23;20420;-71
2023/07/21 05:52:53;;;;;;;19.42;7.40;;;33.10;57.50;;;;;;6129561;23;20040;-71
2023/07/21 05:55:19;;;;;;;19.20;7.93;;;33.30;56.90;;;;;;6156065;23;20080;-69
2023/07/21 05:57:45;;;;;;;21.05;7.55;;;33.50;56.10;;;;;;6156017;23;20037;-70
2023/07/21 06:00:15;;;;;;;24.70;8.43;;;33.80;55.60;;;;;;6155832;23;20008;-73
